Terminal Aerodrome Forecast
Issued by NWS

Home | Current Version | Previous Version | Graphics & Text | Print | Product List | Glossary On
Versions: 1 2 3 4 5 6 7 8 9 10 11 12 13 14 15 16 17 18 19 20 21 22 23 24 25 26 27 28 29
359
FTUS43 KGRB 250520
TAFRHI
TAF
KRHI 250520Z 2506/2606 00000KT 3SM BR SKC
      TEMPO 2506/2508 1SM BR SCT002
     FM250800 00000KT 1SM BR SCT002
      TEMPO 2508/2512 1/4SM FG BKN002
     FM251200 36005KT P6SM SKC
      TEMPO 2512/2514 3SM BR
     FM251800 31005KT P6SM SKC
     FM260000 VRB03KT P6SM SKC=

USA.gov is the U.S. government's official web portal to all federal, state and local government web resources and services.